sensor_id;sensor_type;location;lat;lon;timestamp;pressure;altitude;pressure_sealevel;temperature;humidity
80726;BME280;70113;59.928;10.878;2023-07-29T00:01:02;98111.25;;;15.47;96.27
80726;BME280;70113;59.928;10.878;2023-07-29T00:03:28;98118.09;;;15.38;96.49
80726;BME280;70113;59.928;10.878;2023-07-29T00:05:55;98104.94;;;15.22;97.85
80726;BME280;70113;59.928;10.878;2023-07-29T00:08:21;98109.75;;;15.17;98.42
80726;BME280;70113;59.928;10.878;2023-07-29T00:10:47;98103.03;;;15.12;98.45
80726;BME280;70113;59.928;10.878;2023-07-29T00:13:12;98085.78;;;15.04;98.44
80726;BME280;70113;59.928;10.878;2023-07-29T00:15:38;98109.50;;;14.95;100.00
80726;BME280;70113;59.928;10.878;2023-07-29T00:18:04;98111.66;;;15.02;100.00
80726;BME280;70113;59.928;10.878;2023-07-29T00:20:29;98116.50;;;14.96;100.00
80726;BME280;70113;59.928;10.878;2023-07-29T00:22:56;98113.78;;;15.10;99.31
80726;BME280;70113;59.928;10.878;2023-07-29T00:25:23;98113.78;;;15.10;99.42
80726;BME280;70113;59.928;10.878;2023-07-29T00:27:49;98093.53;;;14.95;99.85
80726;BME280;70113;59.928;10.878;2023-07-29T00:30:14;98109.41;;;14.96;100.00
80726;BME280;70113;59.928;10.878;2023-07-29T00:32:40;98104.59;;;15.01;99.39
80726;BME280;70113;59.928;10.878;2023-07-29T00:35:06;98105.91;;;15.09;98.55
80726;BME280;70113;59.928;10.878;2023-07-29T00:37:32;98100.59;;;15.09;98.74
80726;BME280;70113;59.928;10.878;2023-07-29T00:39:58;98106.22;;;15.04;99.38
80726;BME280;70113;59.928;10.878;2023-07-29T00:42:24;98109.28;;;14.98;100.00
80726;BME280;70113;59.928;10.878;2023-07-29T00:44:50;98102.28;;;15.10;98.38
80726;BME280;70113;59.928;10.878;2023-07-29T00:47:16;98097.88;;;14.96;98.82
80726;BME280;70113;59.928;10.878;2023-07-29T00:49:45;98105.56;;;15.00;98.83
80726;BME280;70113;59.928;10.878;2023-07-29T00:52:11;98109.50;;;15.08;98.25
80726;BME280;70113;59.928;10.878;2023-07-29T00:54:39;98109.41;;;14.96;98.99
80726;BME280;70113;59.928;10.878;2023-07-29T00:57:08;98103.25;;;15.09;97.74
80726;BME280;70113;59.928;10.878;2023-07-29T00:59:35;98094.16;;;14.98;98.41
80726;BME280;70113;59.928;10.878;2023-07-29T01:02:01;98078.19;;;14.73;99.54
80726;BME280;70113;59.928;10.878;2023-07-29T01:04:27;98096.25;;;14.80;99.80
80726;BME280;70113;59.928;10.878;2023-07-29T01:06:58;98091.84;;;14.94;98.78
80726;BME280;70113;59.928;10.878;2023-07-29T01:09:51;98079.25;;;14.83;98.50
80726;BME280;70113;59.928;10.878;2023-07-29T01:12:20;98103.00;;;14.99;98.51
80726;BME280;70113;59.928;10.878;2023-07-29T01:17:22;98090.78;;;14.96;98.27
80726;BME280;70113;59.928;10.878;2023-07-29T01:20:00;98091.63;;;14.97;98.02
80726;BME280;70113;59.928;10.878;2023-07-29T01:22:29;98080.72;;;14.87;98.38
80726;BME280;70113;59.928;10.878;2023-07-29T01:24:57;98068.38;;;14.73;99.24
80726;BME280;70113;59.928;10.878;2023-07-29T01:27:23;98064.91;;;14.86;98.12
80726;BME280;70113;59.928;10.878;2023-07-29T01:29:49;98070.31;;;14.84;98.80
80726;BME280;70113;59.928;10.878;2023-07-29T01:32:20;98078.31;;;14.97;98.24
80726;BME280;70113;59.928;10.878;2023-07-29T01:34:53;98065.75;;;14.86;98.65
80726;BME280;70113;59.928;10.878;2023-07-29T01:37:25;98070.31;;;14.84;99.05
80726;BME280;70113;59.928;10.878;2023-07-29T01:39:55;98073.00;;;14.97;97.97
80726;BME280;70113;59.928;10.878;2023-07-29T01:42:23;98060.53;;;14.85;98.36
80726;BME280;70113;59.928;10.878;2023-07-29T01:44:48;98067.56;;;14.98;97.91
80726;BME280;70113;59.928;10.878;2023-07-29T01:47:14;98068.41;;;14.99;97.48
80726;BME280;70113;59.928;10.878;2023-07-29T01:49:40;98063.06;;;14.86;98.06
80726;BME280;70113;59.928;10.878;2023-07-29T01:52:06;98049.84;;;14.72;98.46
80726;BME280;70113;59.928;10.878;2023-07-29T01:54:31;98066.06;;;14.81;98.63
80726;BME280;70113;59.928;10.878;2023-07-29T01:56:57;98064.88;;;14.73;99.57
80726;BME280;70113;59.928;10.878;2023-07-29T01:59:22;98064.66;;;14.76;99.19
80726;BME280;70113;59.928;10.878;2023-07-29T02:01:48;98062.31;;;14.84;98.29
80726;BME280;70113;59.928;10.878;2023-07-29T02:04:14;98069.47;;;14.84;98.83
80726;BME280;70113;59.928;10.878;2023-07-29T02:06:40;98068.81;;;14.80;98.89
80726;BME280;70113;59.928;10.878;2023-07-29T02:09:05;98038.75;;;14.52;99.38
80726;BME280;70113;59.928;10.878;2023-07-29T02:11:31;98067.22;;;14.77;99.01
80726;BME280;70113;59.928;10.878;2023-07-29T02:13:57;98059.88;;;14.81;98.19
80726;BME280;70113;59.928;10.878;2023-07-29T02:16:23;98062.78;;;14.91;97.44
80726;BME280;70113;59.928;10.878;2023-07-29T02:18:49;98049.22;;;14.81;97.84
80726;BME280;70113;59.928;10.878;2023-07-29T02:21:15;98053.69;;;14.80;97.79
80726;BME280;70113;59.928;10.878;2023-07-29T02:23:41;98055.66;;;14.91;97.23
80726;BME280;70113;59.928;10.878;2023-07-29T02:26:07;98056.91;;;14.86;97.34
80726;BME280;70113;59.928;10.878;2023-07-29T02:28:32;98055.84;;;14.88;97.34
80726;BME280;70113;59.928;10.878;2023-07-29T02:33:43;98063.47;;;14.67;98.12
80726;BME280;70113;59.928;10.878;2023-07-29T02:36:10;98060.28;;;14.75;97.80
80726;BME280;70113;59.928;10.878;2023-07-29T02:38:35;98060.59;;;14.57;98.55
80726;BME280;70113;59.928;10.878;2023-07-29T02:41:01;98054.31;;;14.71;97.58
80726;BME280;70113;59.928;10.878;2023-07-29T02:43:27;98038.34;;;14.58;97.82
80726;BME280;70113;59.928;10.878;2023-07-29T02:45:53;98066.69;;;14.72;97.73
80726;BME280;70113;59.928;10.878;2023-07-29T02:48:18;98059.75;;;14.70;97.87
80726;BME280;70113;59.928;10.878;2023-07-29T02:50:44;98059.75;;;14.70;98.03
80726;BME280;70113;59.928;10.878;2023-07-29T02:53:09;98053.69;;;14.68;97.76
80726;BME280;70113;59.928;10.878;2023-07-29T02:55:39;98066.47;;;14.75;97.47
80726;BME280;70113;59.928;10.878;2023-07-29T02:58:05;98056.66;;;14.63;97.56
80726;BME280;70113;59.928;10.878;2023-07-29T03:00:31;98059.44;;;14.74;96.63
80726;BME280;70113;59.928;10.878;2023-07-29T03:02:58;98063.34;;;14.69;96.75
80726;BME280;70113;59.928;10.878;2023-07-29T03:05:24;98061.13;;;14.63;97.19
80726;BME280;70113;59.928;10.878;2023-07-29T03:07:50;98064.75;;;14.62;97.22
80726;BME280;70113;59.928;10.878;2023-07-29T03:10:16;98030.19;;;14.47;96.99
80726;BME280;70113;59.928;10.878;2023-07-29T03:12:41;98050.13;;;14.54;96.53
80726;BME280;70113;59.928;10.878;2023-07-29T03:15:07;98067.28;;;14.63;96.67
80726;BME280;70113;59.928;10.878;2023-07-29T03:17:33;98061.84;;;14.52;96.47
80726;BME280;70113;59.928;10.878;2023-07-29T03:19:59;98056.00;;;14.59;96.23
80726;BME280;70113;59.928;10.878;2023-07-29T03:22:24;98071.25;;;14.43;96.33
80726;BME280;70113;59.928;10.878;2023-07-29T03:24:50;98065.34;;;14.52;96.10
80726;BME280;70113;59.928;10.878;2023-07-29T03:27:16;98062.50;;;14.55;96.40
80726;BME280;70113;59.928;10.878;2023-07-29T03:29:42;98056.66;;;14.63;95.59
80726;BME280;70113;59.928;10.878;2023-07-29T03:32:07;98062.84;;;14.76;95.04
80726;BME280;70113;59.928;10.878;2023-07-29T03:34:33;98054.75;;;14.78;94.52
80726;BME280;70113;59.928;10.878;2023-07-29T03:37:00;98062.66;;;14.79;94.71
80726;BME280;70113;59.928;10.878;2023-07-29T03:39:26;98056.69;;;14.76;94.32
80726;BME280;70113;59.928;10.878;2023-07-29T03:41:52;98054.13;;;14.74;95.17
80726;BME280;70113;59.928;10.878;2023-07-29T03:44:18;98060.53;;;14.85;94.31
80726;BME280;70113;59.928;10.878;2023-07-29T03:46:44;98061.59;;;14.82;94.38
80726;BME280;70113;59.928;10.878;2023-07-29T03:49:10;98057.31;;;14.79;94.13
80726;BME280;70113;59.928;10.878;2023-07-29T03:51:36;98055.72;;;14.77;94.04
80726;BME280;70113;59.928;10.878;2023-07-29T03:54:02;98059.88;;;14.81;94.21
80726;BME280;70113;59.928;10.878;2023-07-29T03:56:27;98054.13;;;14.74;94.12
80726;BME280;70113;59.928;10.878;2023-07-29T03:58:53;98047.75;;;14.77;94.19
80726;BME280;70113;59.928;10.878;2023-07-29T04:01:26;98059.16;;;14.79;94.43
80726;BME280;70113;59.928;10.878;2023-07-29T04:03:52;98054.75;;;14.78;94.24
80726;BME280;70113;59.928;10.878;2023-07-29T04:06:18;98044.13;;;14.78;94.12
80726;BME280;70113;59.928;10.878;2023-07-29T04:08:44;98048.38;;;14.80;93.95
80726;BME280;70113;59.928;10.878;2023-07-29T04:11:09;98039.69;;;14.78;93.90
80726;BME280;70113;59.928;10.878;2023-07-29T04:13:35;98046.47;;;14.82;94.02
80726;BME280;70113;59.928;10.878;2023-07-29T04:16:04;98050.63;;;14.87;93.63
80726;BME280;70113;59.928;10.878;2023-07-29T04:18:30;98051.88;;;14.81;94.13
80726;BME280;70113;59.928;10.878;2023-07-29T04:20:55;98039.47;;;14.81;93.88
80726;BME280;70113;59.928;10.878;2023-07-29T04:23:21;98034.56;;;14.75;93.91
80726;BME280;70113;59.928;10.878;2023-07-29T04:25:47;98037.94;;;14.77;93.84
80726;BME280;70113;59.928;10.878;2023-07-29T04:28:12;98050.31;;;14.78;94.01
80726;BME280;70113;59.928;10.878;2023-07-29T04:30:38;98034.84;;;14.71;93.85
80726;BME280;70113;59.928;10.878;2023-07-29T04:33:04;98039.44;;;14.69;94.24
80726;BME280;70113;59.928;10.878;2023-07-29T04:35:29;98051.38;;;14.76;94.16
80726;BME280;70113;59.928;10.878;2023-07-29T04:37:55;98034.44;;;14.77;93.95
80726;BME280;70113;59.928;10.878;2023-07-29T04:40:21;98031.78;;;14.77;93.32
80726;BME280;70113;59.928;10.878;2023-07-29T04:42:50;98036.81;;;14.81;94.02
80726;BME280;70113;59.928;10.878;2023-07-29T04:45:16;98039.69;;;14.78;93.93
80726;BME280;70113;59.928;10.878;2023-07-29T04:47:43;98041.03;;;14.84;93.69
80726;BME280;70113;59.928;10.878;2023-07-29T04:50:09;98035.00;;;14.82;93.78
80726;BME280;70113;59.928;10.878;2023-07-29T04:52:35;98033.72;;;14.88;93.32
80726;BME280;70113;59.928;10.878;2023-07-29T04:55:00;98037.31;;;14.87;93.45
80726;BME280;70113;59.928;10.878;2023-07-29T04:57:26;98047.75;;;14.90;93.16
80726;BME280;70113;59.928;10.878;2023-07-29T04:59:51;98035.84;;;14.82;93.58
80726;BME280;70113;59.928;10.878;2023-07-29T05:02:17;98034.56;;;14.88;92.89
80726;BME280;70113;59.928;10.878;2023-07-29T05:04:43;98045.63;;;14.95;93.21
80726;BME280;70113;59.928;10.878;2023-07-29T05:07:08;98041.50;;;14.91;93.19
80726;BME280;70113;59.928;10.878;2023-07-29T05:09:34;98046.47;;;14.95;93.01
80726;BME280;70113;59.928;10.878;2023-07-29T05:12:00;98044.16;;;14.91;93.02
80726;BME280;70113;59.928;10.878;2023-07-29T05:14:26;98031.38;;;14.83;93.42
80726;BME280;70113;59.928;10.878;2023-07-29T05:16:51;98045.00;;;14.91;93.13
80726;BME280;70113;59.928;10.878;2023-07-29T05:19:17;98041.06;;;14.97;93.49
80726;BME280;70113;59.928;10.878;2023-07-29T05:21:43;98042.34;;;14.91;93.32
80726;BME280;70113;59.928;10.878;2023-07-29T05:24:09;98047.25;;;14.97;92.95
80726;BME280;70113;59.928;10.878;2023-07-29T05:26:34;98045.53;;;14.96;92.57
80726;BME280;70113;59.928;10.878;2023-07-29T05:29:00;98033.59;;;14.89;92.36
80726;BME280;70113;59.928;10.878;2023-07-29T05:31:26;98036.69;;;14.96;92.37
80726;BME280;70113;59.928;10.878;2023-07-29T05:33:51;98034.16;;;14.94;92.72
80726;BME280;70113;59.928;10.878;2023-07-29T05:36:17;98038.59;;;14.81;93.32
80726;BME280;70113;59.928;10.878;2023-07-29T05:38:42;98047.97;;;14.87;93.42
80726;BME280;70113;59.928;10.878;2023-07-29T05:41:08;98060.69;;;14.69;94.27
80726;BME280;70113;59.928;10.878;2023-07-29T05:43:34;98044.78;;;14.81;93.88
80726;BME280;70113;59.928;10.878;2023-07-29T05:46:00;98050.13;;;14.94;93.28
80726;BME280;70113;59.928;10.878;2023-07-29T05:48:27;98045.34;;;14.99;93.09
80726;BME280;70113;59.928;10.878;2023-07-29T05:50:53;98044.47;;;14.99;93.22
80726;BME280;70113;59.928;10.878;2023-07-29T05:53:18;98053.19;;;15.01;93.36
80726;BME280;70113;59.928;10.878;2023-07-29T05:55:44;98048.94;;;14.98;93.19
80726;BME280;70113;59.928;10.878;2023-07-29T05:58:09;98048.09;;;14.98;93.35
80726;BME280;70113;59.928;10.878;2023-07-29T06:00:35;98060.97;;;15.04;93.31
80726;BME280;70113;59.928;10.878;2023-07-29T06:03:01;98053.75;;;15.06;92.88
80726;BME280;70113;59.928;10.878;2023-07-29T06:05:27;98049.06;;;14.97;93.59
80726;BME280;70113;59.928;10.878;2023-07-29T06:07:53;98047.31;;;14.96;93.61
80726;BME280;70113;59.928;10.878;2023-07-29T06:10:19;98053.84;;;15.04;93.54
80726;BME280;70113;59.928;10.878;2023-07-29T06:12:45;98055.84;;;15.14;92.69
80726;BME280;70113;59.928;10.878;2023-07-29T06:15:11;98053.53;;;15.09;92.92
80726;BME280;70113;59.928;10.878;2023-07-29T06:17:38;98051.94;;;15.07;92.64
80726;BME280;70113;59.928;10.878;2023-07-29T06:20:06;98039.59;;;15.06;92.63
80726;BME280;70113;59.928;10.878;2023-07-29T06:22:31;98039.69;;;15.04;92.79
80726;BME280;70113;59.928;10.878;2023-07-29T06:24:57;98055.22;;;15.10;92.39
80726;BME280;70113;59.928;10.878;2023-07-29T06:27:24;98049.69;;;15.13;91.99
80726;BME280;70113;59.928;10.878;2023-07-29T06:29:50;98048.28;;;15.08;92.44
80726;BME280;70113;59.928;10.878;2023-07-29T06:32:16;98048.75;;;15.14;91.72
80726;BME280;70113;59.928;10.878;2023-07-29T06:34:42;98053.84;;;15.17;91.15
80726;BME280;70113;59.928;10.878;2023-07-29T06:37:07;98051.84;;;15.21;91.01
80726;BME280;70113;59.928;10.878;2023-07-29T06:39:34;98065.66;;;15.13;91.42
80726;BME280;70113;59.928;10.878;2023-07-29T06:41:59;98059.28;;;15.16;91.17
80726;BME280;70113;59.928;10.878;2023-07-29T06:44:26;98060.44;;;15.24;91.03
80726;BME280;70113;59.928;10.878;2023-07-29T06:46:51;98045.00;;;15.17;90.04
80726;BME280;70113;59.928;10.878;2023-07-29T06:49:17;98051.84;;;15.08;90.93
80726;BME280;70113;59.928;10.878;2023-07-29T06:51:42;98062.91;;;15.15;90.63
80726;BME280;70113;59.928;10.878;2023-07-29T06:54:08;98057.16;;;15.34;88.20
80726;BME280;70113;59.928;10.878;2023-07-29T06:56:34;98053.09;;;15.15;89.03
80726;BME280;70113;59.928;10.878;2023-07-29T06:59:00;98063.00;;;15.13;88.80
80726;BME280;70113;59.928;10.878;2023-07-29T07:01:25;98057.78;;;15.12;88.52
80726;BME280;70113;59.928;10.878;2023-07-29T07:03:51;98048.41;;;15.19;88.62
80726;BME280;70113;59.928;10.878;2023-07-29T07:06:21;98054.38;;;15.22;88.23
80726;BME280;70113;59.928;10.878;2023-07-29T07:08:47;98046.59;;;15.07;88.89
80726;BME280;70113;59.928;10.878;2023-07-29T07:11:13;98057.59;;;15.15;88.51
80726;BME280;70113;59.928;10.878;2023-07-29T07:13:39;98066.84;;;15.22;87.96
80726;BME280;70113;59.928;10.878;2023-07-29T07:16:04;98056.94;;;15.11;86.68
80726;BME280;70113;59.928;10.878;2023-07-29T07:18:30;98058.63;;;15.25;86.54
80726;BME280;70113;59.928;10.878;2023-07-29T07:20:56;98055.03;;;15.26;86.08
80726;BME280;70113;59.928;10.878;2023-07-29T07:23:22;98062.28;;;15.11;84.61
80726;BME280;70113;59.928;10.878;2023-07-29T07:25:47;98058.44;;;15.15;85.93
80726;BME280;70113;59.928;10.878;2023-07-29T07:28:13;98056.19;;;14.96;85.16
80726;BME280;70113;59.928;10.878;2023-07-29T07:30:41;98054.59;;;15.07;85.87
80726;BME280;70113;59.928;10.878;2023-07-29T07:33:07;98062.16;;;15.13;85.93
80726;BME280;70113;59.928;10.878;2023-07-29T07:35:33;98063.22;;;15.23;86.12
80726;BME280;70113;59.928;10.878;2023-07-29T07:37:59;98058.66;;;15.38;85.91
80726;BME280;70113;59.928;10.878;2023-07-29T07:40:27;98059.28;;;15.41;85.63
80726;BME280;70113;59.928;10.878;2023-07-29T07:42:53;98065.78;;;15.50;85.08
80726;BME280;70113;59.928;10.878;2023-07-29T07:45:19;98055.66;;;15.42;85.02
80726;BME280;70113;59.928;10.878;2023-07-29T07:47:45;98062.59;;;15.32;85.31
80726;BME280;70113;59.928;10.878;2023-07-29T07:50:11;98068.22;;;15.53;84.32
80726;BME280;70113;59.928;10.878;2023-07-29T07:52:37;98054.25;;;15.49;85.04
80726;BME280;70113;59.928;10.878;2023-07-29T07:55:03;98041.38;;;15.56;84.28
80726;BME280;70113;59.928;10.878;2023-07-29T07:57:28;98055.72;;;15.66;83.58
80726;BME280;70113;59.928;10.878;2023-07-29T07:59:54;98050.53;;;15.65;83.23
80726;BME280;70113;59.928;10.878;2023-07-29T08:02:20;98053.72;;;15.70;82.33
80726;BME280;70113;59.928;10.878;2023-07-29T08:04:45;98044.34;;;15.77;83.07
80726;BME280;70113;59.928;10.878;2023-07-29T08:07:11;98040.84;;;15.77;82.07
80726;BME280;70113;59.928;10.878;2023-07-29T08:09:38;98040.94;;;15.75;82.55
80726;BME280;70113;59.928;10.878;2023-07-29T08:12:04;98052.00;;;15.82;81.87
80726;BME280;70113;59.928;10.878;2023-07-29T08:14:30;98037.59;;;15.84;82.63
80726;BME280;70113;59.928;10.878;2023-07-29T08:16:56;98050.88;;;15.97;80.77
80726;BME280;70113;59.928;10.878;2023-07-29T08:19:22;98039.91;;;16.02;81.38
80726;BME280;70113;59.928;10.878;2023-07-29T08:21:48;98044.03;;;16.06;81.73
80726;BME280;70113;59.928;10.878;2023-07-29T08:24:14;98038.06;;;16.02;82.66
80726;BME280;70113;59.928;10.878;2023-07-29T08:26:40;98039.69;;;16.29;82.07
80726;BME280;70113;59.928;10.878;2023-07-29T08:29:05;98035.94;;;16.31;81.21
80726;BME280;70113;59.928;10.878;2023-07-29T08:31:31;98042.56;;;16.50;79.19
80726;BME280;70113;59.928;10.878;2023-07-29T08:33:59;98050.94;;;16.56;79.87
80726;BME280;70113;59.928;10.878;2023-07-29T08:36:26;98052.91;;;16.30;79.80
80726;BME280;70113;59.928;10.878;2023-07-29T08:38:51;98048.34;;;16.44;80.19
80726;BME280;70113;59.928;10.878;2023-07-29T08:41:34;98041.59;;;16.51;80.29
80726;BME280;70113;59.928;10.878;2023-07-29T08:44:12;98032.34;;;16.44;79.55
80726;BME280;70113;59.928;10.878;2023-07-29T08:46:39;98043.03;;;16.44;79.92
80726;BME280;70113;59.928;10.878;2023-07-29T08:49:06;98039.16;;;16.48;79.93
80726;BME280;70113;59.928;10.878;2023-07-29T08:51:33;98026.16;;;16.43;81.44
80726;BME280;70113;59.928;10.878;2023-07-29T08:53:59;98036.53;;;16.59;81.84
80726;BME280;70113;59.928;10.878;2023-07-29T08:56:26;98032.69;;;16.74;81.14
80726;BME280;70113;59.928;10.878;2023-07-29T08:58:53;98029.63;;;16.92;80.11
80726;BME280;70113;59.928;10.878;2023-07-29T09:01:19;98028.03;;;16.89;80.51
80726;BME280;70113;59.928;10.878;2023-07-29T09:03:45;98024.06;;;17.06;77.95
80726;BME280;70113;59.928;10.878;2023-07-29T09:06:11;98036.13;;;17.23;77.56
80726;BME280;70113;59.928;10.878;2023-07-29T09:08:39;98027.25;;;17.11;78.85
80726;BME280;70113;59.928;10.878;2023-07-29T09:11:06;98017.66;;;17.08;78.14
80726;BME280;70113;59.928;10.878;2023-07-29T09:13:32;98014.34;;;16.94;78.93
80726;BME280;70113;59.928;10.878;2023-07-29T09:15:58;98009.63;;;16.97;78.12
80726;BME280;70113;59.928;10.878;2023-07-29T09:18:26;98020.56;;;17.05;78.41
80726;BME280;70113;59.928;10.878;2023-07-29T09:20:52;98023.56;;;16.90;79.00
80726;BME280;70113;59.928;10.878;2023-07-29T09:23:18;98023.94;;;16.96;80.08
80726;BME280;70113;59.928;10.878;2023-07-29T09:25:46;98021.41;;;17.06;79.57
80726;BME280;70113;59.928;10.878;2023-07-29T09:28:13;98019.69;;;16.94;79.64
80726;BME280;70113;59.928;10.878;2023-07-29T09:30:41;98037.41;;;16.95;80.04
80726;BME280;70113;59.928;10.878;2023-07-29T09:33:09;98022.69;;;16.89;78.87
80726;BME280;70113;59.928;10.878;2023-07-29T09:35:36;98019.19;;;16.89;79.02
80726;BME280;70113;59.928;10.878;2023-07-29T09:38:03;98036.78;;;16.91;79.13
80726;BME280;70113;59.928;10.878;2023-07-29T09:40:36;98029.16;;;16.98;79.33
80726;BME280;70113;59.928;10.878;2023-07-29T09:43:03;98032.69;;;17.09;79.11
80726;BME280;70113;59.928;10.878;2023-07-29T09:45:29;98028.47;;;17.18;79.50
80726;BME280;70113;59.928;10.878;2023-07-29T09:47:57;98023.97;;;17.07;79.35
80726;BME280;70113;59.928;10.878;2023-07-29T09:50:25;98036.56;;;16.94;78.86
80726;BME280;70113;59.928;10.878;2023-07-29T09:52:51;98024.41;;;16.90;78.69
80726;BME280;70113;59.928;10.878;2023-07-29T09:55:26;98013.78;;;17.01;79.00
80726;BME280;70113;59.928;10.878;2023-07-29T09:57:57;98021.38;;;16.95;78.31
80726;BME280;70113;59.928;10.878;2023-07-29T10:00:28;98008.53;;;17.00;78.02
80726;BME280;70113;59.928;10.878;2023-07-29T10:02:54;98017.16;;;17.15;78.53
80726;BME280;70113;59.928;10.878;2023-07-29T10:05:22;98015.38;;;17.26;78.87
80726;BME280;70113;59.928;10.878;2023-07-29T10:07:49;98007.84;;;17.31;78.56
80726;BME280;70113;59.928;10.878;2023-07-29T10:10:15;98008.56;;;17.34;77.81
80726;BME280;70113;59.928;10.878;2023-07-29T10:30:25;97966.56;;;17.24;76.36
80726;BME280;70113;59.928;10.878;2023-07-29T10:32:52;97939.75;;;17.26;75.75
80726;BME280;70113;59.928;10.878;2023-07-29T10:40:52;97897.84;;;17.04;73.57
80726;BME280;70113;59.928;10.878;2023-07-29T10:51:26;97993.84;;;17.84;73.84
80726;BME280;70113;59.928;10.878;2023-07-29T10:53:57;97988.88;;;17.91;73.59
80726;BME280;70113;59.928;10.878;2023-07-29T10:58:56;97982.84;;;18.10;67.06
80726;BME280;70113;59.928;10.878;2023-07-29T11:01:30;97958.38;;;18.14;68.21
80726;BME280;70113;59.928;10.878;2023-07-29T11:09:55;97975.41;;;18.45;65.53
80726;BME280;70113;59.928;10.878;2023-07-29T11:12:46;97982.16;;;18.61;67.18
80726;BME280;70113;59.928;10.878;2023-07-29T11:17:53;97965.75;;;18.86;65.25
80726;BME280;70113;59.928;10.878;2023-07-29T11:20:30;97966.06;;;18.93;64.78
80726;BME280;70113;59.928;10.878;2023-07-29T11:22:57;97956.22;;;19.03;63.59
80726;BME280;70113;59.928;10.878;2023-07-29T11:25:25;97966.66;;;19.06;62.84
80726;BME280;70113;59.928;10.878;2023-07-29T11:27:52;97960.22;;;19.09;64.61
80726;BME280;70113;59.928;10.878;2023-07-29T11:30:18;97962.97;;;19.19;64.95
80726;BME280;70113;59.928;10.878;2023-07-29T11:32:45;97946.97;;;19.07;64.29
80726;BME280;70113;59.928;10.878;2023-07-29T11:35:17;97946.97;;;19.07;64.56
80726;BME280;70113;59.928;10.878;2023-07-29T11:37:48;97958.75;;;19.26;64.37
80726;BME280;70113;59.928;10.878;2023-07-29T11:40:15;97973.41;;;19.22;62.88
80726;BME280;70113;59.928;10.878;2023-07-29T11:42:42;97961.50;;;19.15;62.97
80726;BME280;70113;59.928;10.878;2023-07-29T11:45:08;97954.47;;;19.13;64.48
80726;BME280;70113;59.928;10.878;2023-07-29T11:47:35;97954.91;;;19.19;63.32
80726;BME280;70113;59.928;10.878;2023-07-29T11:50:09;97962.16;;;19.28;61.74
80726;BME280;70113;59.928;10.878;2023-07-29T11:52:37;97969.66;;;19.34;62.87
80726;BME280;70113;59.928;10.878;2023-07-29T11:55:05;97956.66;;;19.39;64.78
80726;BME280;70113;59.928;10.878;2023-07-29T11:57:35;97956.44;;;19.52;65.35
80726;BME280;70113;59.928;10.878;2023-07-29T12:00:08;97949.09;;;19.54;63.63
80726;BME280;70113;59.928;10.878;2023-07-29T12:02:37;97930.03;;;19.38;64.17
80726;BME280;70113;59.928;10.878;2023-07-29T12:05:04;97947.91;;;19.68;64.54
80726;BME280;70113;59.928;10.878;2023-07-29T12:07:31;97939.47;;;19.82;64.44
80726;BME280;70113;59.928;10.878;2023-07-29T12:09:59;97943.56;;;19.76;61.52
80726;BME280;70113;59.928;10.878;2023-07-29T12:12:25;97940.88;;;19.76;61.74
80726;BME280;70113;59.928;10.878;2023-07-29T12:14:50;97942.88;;;19.84;62.39
80726;BME280;70113;59.928;10.878;2023-07-29T12:17:18;97959.66;;;19.76;62.18
80726;BME280;70113;59.928;10.878;2023-07-29T12:19:43;97955.22;;;19.66;62.70
80726;BME280;70113;59.928;10.878;2023-07-29T12:22:10;97950.88;;;19.65;62.30
80726;BME280;70113;59.928;10.878;2023-07-29T12:24:40;97948.91;;;19.76;61.41
80726;BME280;70113;59.928;10.878;2023-07-29T12:27:11;97952.06;;;19.91;60.80
80726;BME280;70113;59.928;10.878;2023-07-29T12:29:43;97961.38;;;19.97;61.26
80726;BME280;70113;59.928;10.878;2023-07-29T12:32:10;97946.53;;;19.73;58.97
80726;BME280;70113;59.928;10.878;2023-07-29T12:34:37;97953.44;;;19.76;58.31
80726;BME280;70113;59.928;10.878;2023-07-29T12:37:05;97960.53;;;19.96;58.10
80726;BME280;70113;59.928;10.878;2023-07-29T12:39:34;97933.41;;;19.80;55.33
80726;BME280;70113;59.928;10.878;2023-07-29T12:42:02;97956.59;;;20.00;57.92
80726;BME280;70113;59.928;10.878;2023-07-29T12:44:35;97957.19;;;20.14;55.77
80726;BME280;70113;59.928;10.878;2023-07-29T12:47:02;97959.59;;;20.17;52.19
80726;BME280;70113;59.928;10.878;2023-07-29T12:49:29;97955.34;;;20.24;51.88
80726;BME280;70113;59.928;10.878;2023-07-29T12:51:56;97961.13;;;20.48;54.94
80726;BME280;70113;59.928;10.878;2023-07-29T12:54:22;97950.56;;;20.57;51.26
80726;BME280;70113;59.928;10.878;2023-07-29T12:56:48;97943.75;;;20.62;51.77
80726;BME280;70113;59.928;10.878;2023-07-29T12:59:14;97945.16;;;20.66;52.43
80726;BME280;70113;59.928;10.878;2023-07-29T13:01:40;97934.97;;;20.70;52.62
80726;BME280;70113;59.928;10.878;2023-07-29T13:04:06;97924.66;;;20.75;53.26
80726;BME280;70113;59.928;10.878;2023-07-29T13:06:32;97941.50;;;20.67;50.16
80726;BME280;70113;59.928;10.878;2023-07-29T13:08:57;97919.69;;;20.80;50.90
80726;BME280;70113;59.928;10.878;2023-07-29T13:11:23;97937.59;;;20.99;50.75
80726;BME280;70113;59.928;10.878;2023-07-29T13:13:49;97917.53;;;20.93;47.95
80726;BME280;70113;59.928;10.878;2023-07-29T13:16:15;97919.44;;;21.11;48.90
80726;BME280;70113;59.928;10.878;2023-07-29T13:18:43;97928.19;;;21.23;49.47
80726;BME280;70113;59.928;10.878;2023-07-29T13:21:09;97915.97;;;21.38;48.21
80726;BME280;70113;59.928;10.878;2023-07-29T13:23:35;97927.00;;;21.45;49.32
80726;BME280;70113;59.928;10.878;2023-07-29T13:26:01;97912.72;;;21.62;49.06
80726;BME280;70113;59.928;10.878;2023-07-29T13:28:26;97930.50;;;21.73;46.37
80726;BME280;70113;59.928;10.878;2023-07-29T13:30:52;97903.44;;;21.74;46.58
80726;BME280;70113;59.928;10.878;2023-07-29T13:33:18;97907.84;;;21.75;48.48
80726;BME280;70113;59.928;10.878;2023-07-29T13:35:44;97897.84;;;21.85;46.41